Terminal Aerodrome Forecast
Issued by NWS

Home | Current Version | Previous Version | Text Only | Print | Product List | Glossary On
Versions: 1 2 3 4 5 6 7 8 9 10 11 12 13 14 15 16 17 18
354
FTUS43 KMQT 301120
TAFIWD
TAF
KIWD 301120Z 3012/3112 27008KT P6SM VCSH BKN015
     FM310500 28010KT P6SM BKN015
     FM310800 29010KT P6SM BKN020
     FM311100 29009KT P6SM BKN050=

USA.gov is the U.S. government's official web portal to all federal, state and local government web resources and services.